sensor_id;sensor_type;location;lat;lon;timestamp;P1;durP1;ratioP1;P2;durP2;ratioP2
35074;SDS011;21260;34.984;32.490;2023-03-14T00:01:13;5.77;;;3.10;;
35074;SDS011;21260;34.984;32.490;2023-03-14T00:03:43;6.05;;;2.92;;
35074;SDS011;21260;34.984;32.490;2023-03-14T00:06:10;6.25;;;3.05;;
35074;SDS011;21260;34.984;32.490;2023-03-14T00:08:38;6.95;;;3.03;;
35074;SDS011;21260;34.984;32.490;2023-03-14T00:11:16;5.13;;;2.70;;
35074;SDS011;21260;34.984;32.490;2023-03-14T00:13:47;5.75;;;2.90;;
35074;SDS011;21260;34.984;32.490;2023-03-14T00:16:15;5.78;;;2.80;;
35074;SDS011;21260;34.984;32.490;2023-03-14T00:18:43;7.43;;;2.95;;
35074;SDS011;21260;34.984;32.490;2023-03-14T00:21:10;5.50;;;2.67;;
35074;SDS011;21260;34.984;32.490;2023-03-14T00:23:38;4.88;;;2.42;;
35074;SDS011;21260;34.984;32.490;2023-03-14T00:26:16;7.15;;;2.53;;
35074;SDS011;21260;34.984;32.490;2023-03-14T00:28:46;4.38;;;2.47;;
35074;SDS011;21260;34.984;32.490;2023-03-14T00:31:16;4.43;;;2.60;;
35074;SDS011;21260;34.984;32.490;2023-03-14T00:33:43;6.32;;;2.83;;
35074;SDS011;21260;34.984;32.490;2023-03-14T00:36:11;5.18;;;2.55;;
35074;SDS011;21260;34.984;32.490;2023-03-14T00:38:41;4.13;;;2.23;;
35074;SDS011;21260;34.984;32.490;2023-03-14T00:41:09;4.15;;;2.40;;
35074;SDS011;21260;34.984;32.490;2023-03-14T00:43:42;8.05;;;2.70;;
35074;SDS011;21260;34.984;32.490;2023-03-14T00:46:10;5.13;;;2.40;;
35074;SDS011;21260;34.984;32.490;2023-03-14T00:48:37;6.45;;;2.25;;
35074;SDS011;21260;34.984;32.490;2023-03-14T00:51:04;3.77;;;2.20;;
35074;SDS011;21260;34.984;32.490;2023-03-14T00:53:34;4.57;;;2.30;;
35074;SDS011;21260;34.984;32.490;2023-03-14T00:56:06;6.10;;;2.30;;
35074;SDS011;21260;34.984;32.490;2023-03-14T00:58:35;4.17;;;2.60;;
35074;SDS011;21260;34.984;32.490;2023-03-14T01:01:06;6.33;;;2.70;;
35074;SDS011;21260;34.984;32.490;2023-03-14T01:03:35;5.07;;;2.60;;
35074;SDS011;21260;34.984;32.490;2023-03-14T01:06:09;4.65;;;2.60;;
35074;SDS011;21260;34.984;32.490;2023-03-14T01:08:45;5.85;;;2.60;;
35074;SDS011;21260;34.984;32.490;2023-03-14T01:11:13;5.30;;;2.77;;
35074;SDS011;21260;34.984;32.490;2023-03-14T01:13:49;4.53;;;2.43;;
35074;SDS011;21260;34.984;32.490;2023-03-14T01:16:17;5.93;;;2.60;;
35074;SDS011;21260;34.984;32.490;2023-03-14T01:18:45;4.63;;;2.40;;
35074;SDS011;21260;34.984;32.490;2023-03-14T01:21:14;4.22;;;2.65;;
35074;SDS011;21260;34.984;32.490;2023-03-14T01:23:56;4.65;;;2.60;;
35074;SDS011;21260;34.984;32.490;2023-03-14T01:26:25;5.75;;;2.80;;
35074;SDS011;21260;34.984;32.490;2023-03-14T01:28:56;6.35;;;2.78;;
35074;SDS011;21260;34.984;32.490;2023-03-14T01:31:23;6.43;;;2.80;;
35074;SDS011;21260;34.984;32.490;2023-03-14T01:33:51;5.13;;;2.72;;
35074;SDS011;21260;34.984;32.490;2023-03-14T01:36:18;6.23;;;2.50;;
35074;SDS011;21260;34.984;32.490;2023-03-14T01:38:45;5.57;;;2.42;;
35074;SDS011;21260;34.984;32.490;2023-03-14T01:41:15;5.40;;;2.78;;
35074;SDS011;21260;34.984;32.490;2023-03-14T01:43:46;3.45;;;2.50;;
35074;SDS011;21260;34.984;32.490;2023-03-14T01:51:29;5.57;;;2.50;;
35074;SDS011;21260;34.984;32.490;2023-03-14T01:54:33;7.35;;;2.75;;
35074;SDS011;21260;34.984;32.490;2023-03-14T01:57:37;5.18;;;2.42;;
35074;SDS011;21260;34.984;32.490;2023-03-14T02:02:50;6.15;;;2.60;;
35074;SDS011;21260;34.984;32.490;2023-03-14T02:05:28;5.63;;;2.60;;
35074;SDS011;21260;34.984;32.490;2023-03-14T02:08:00;5.30;;;2.30;;
35074;SDS011;21260;34.984;32.490;2023-03-14T02:10:30;5.78;;;2.53;;
35074;SDS011;21260;34.984;32.490;2023-03-14T02:13:03;6.00;;;2.40;;
35074;SDS011;21260;34.984;32.490;2023-03-14T02:15:31;4.22;;;2.10;;
35074;SDS011;21260;34.984;32.490;2023-03-14T02:18:01;4.05;;;2.05;;
35074;SDS011;21260;34.984;32.490;2023-03-14T02:26:04;3.97;;;2.17;;
35074;SDS011;21260;34.984;32.490;2023-03-14T02:28:40;4.78;;;2.30;;
35074;SDS011;21260;34.984;32.490;2023-03-14T02:31:07;3.75;;;2.13;;
35074;SDS011;21260;34.984;32.490;2023-03-14T02:33:35;5.80;;;2.40;;
35074;SDS011;21260;34.984;32.490;2023-03-14T02:36:04;5.03;;;2.35;;
35074;SDS011;21260;34.984;32.490;2023-03-14T02:38:41;5.15;;;2.40;;
35074;SDS011;21260;34.984;32.490;2023-03-14T02:41:39;5.50;;;2.80;;
35074;SDS011;21260;34.984;32.490;2023-03-14T02:44:07;5.50;;;2.23;;
35074;SDS011;21260;34.984;32.490;2023-03-14T02:46:33;4.10;;;2.47;;
35074;SDS011;21260;34.984;32.490;2023-03-14T02:49:12;4.25;;;2.30;;
35074;SDS011;21260;34.984;32.490;2023-03-14T02:51:40;3.97;;;2.20;;
35074;SDS011;21260;34.984;32.490;2023-03-14T02:54:10;4.72;;;2.50;;
35074;SDS011;21260;34.984;32.490;2023-03-14T02:56:36;6.25;;;2.60;;
35074;SDS011;21260;34.984;32.490;2023-03-14T02:59:03;6.88;;;2.72;;
35074;SDS011;21260;34.984;32.490;2023-03-14T03:01:30;5.90;;;2.47;;
35074;SDS011;21260;34.984;32.490;2023-03-14T03:03:58;6.70;;;2.50;;
35074;SDS011;21260;34.984;32.490;2023-03-14T03:06:27;5.77;;;2.20;;
35074;SDS011;21260;34.984;32.490;2023-03-14T03:08:53;4.55;;;2.40;;
35074;SDS011;21260;34.984;32.490;2023-03-14T03:11:22;5.55;;;2.50;;
35074;SDS011;21260;34.984;32.490;2023-03-14T03:13:49;4.30;;;2.38;;
35074;SDS011;21260;34.984;32.490;2023-03-14T03:16:17;4.03;;;2.40;;
35074;SDS011;21260;34.984;32.490;2023-03-14T03:18:43;4.20;;;2.50;;
35074;SDS011;21260;34.984;32.490;2023-03-14T03:21:10;5.67;;;2.60;;
35074;SDS011;21260;34.984;32.490;2023-03-14T03:23:36;4.63;;;2.30;;
35074;SDS011;21260;34.984;32.490;2023-03-14T03:26:02;3.72;;;2.35;;
35074;SDS011;21260;34.984;32.490;2023-03-14T03:28:29;4.55;;;2.40;;
35074;SDS011;21260;34.984;32.490;2023-03-14T03:30:55;6.95;;;2.70;;
35074;SDS011;21260;34.984;32.490;2023-03-14T03:33:21;4.90;;;2.30;;
35074;SDS011;21260;34.984;32.490;2023-03-14T03:35:49;5.00;;;2.30;;
35074;SDS011;21260;34.984;32.490;2023-03-14T03:38:17;4.93;;;1.98;;
35074;SDS011;21260;34.984;32.490;2023-03-14T03:40:45;5.30;;;2.30;;
35074;SDS011;21260;34.984;32.490;2023-03-14T03:43:11;4.25;;;2.17;;
35074;SDS011;21260;34.984;32.490;2023-03-14T03:45:40;3.97;;;2.30;;
35074;SDS011;21260;34.984;32.490;2023-03-14T03:48:06;5.07;;;2.20;;
35074;SDS011;21260;34.984;32.490;2023-03-14T03:50:32;3.92;;;2.20;;
35074;SDS011;21260;34.984;32.490;2023-03-14T03:52:58;4.53;;;2.13;;
35074;SDS011;21260;34.984;32.490;2023-03-14T03:55:25;5.13;;;2.13;;
35074;SDS011;21260;34.984;32.490;2023-03-14T03:57:53;4.70;;;2.08;;
35074;SDS011;21260;34.984;32.490;2023-03-14T04:00:19;5.28;;;2.28;;
35074;SDS011;21260;34.984;32.490;2023-03-14T04:02:46;5.45;;;2.35;;
35074;SDS011;21260;34.984;32.490;2023-03-14T04:05:12;4.82;;;2.00;;
35074;SDS011;21260;34.984;32.490;2023-03-14T04:07:38;4.85;;;2.10;;
35074;SDS011;21260;34.984;32.490;2023-03-14T04:10:04;5.43;;;2.10;;
35074;SDS011;21260;34.984;32.490;2023-03-14T04:12:31;4.28;;;2.15;;
35074;SDS011;21260;34.984;32.490;2023-03-14T04:14:57;4.45;;;2.10;;
35074;SDS011;21260;34.984;32.490;2023-03-14T04:17:23;4.53;;;2.13;;
35074;SDS011;21260;34.984;32.490;2023-03-14T04:19:50;5.15;;;2.40;;
35074;SDS011;21260;34.984;32.490;2023-03-14T04:22:18;4.97;;;2.15;;
35074;SDS011;21260;34.984;32.490;2023-03-14T04:24:45;4.68;;;2.20;;
35074;SDS011;21260;34.984;32.490;2023-03-14T04:27:11;4.53;;;2.10;;
35074;SDS011;21260;34.984;32.490;2023-03-14T04:29:41;5.22;;;2.28;;
35074;SDS011;21260;34.984;32.490;2023-03-14T04:32:08;4.17;;;2.20;;
35074;SDS011;21260;34.984;32.490;2023-03-14T04:34:34;4.97;;;2.30;;
35074;SDS011;21260;34.984;32.490;2023-03-14T04:37:00;4.68;;;2.20;;
35074;SDS011;21260;34.984;32.490;2023-03-14T04:39:27;6.80;;;2.45;;
35074;SDS011;21260;34.984;32.490;2023-03-14T04:41:53;4.72;;;2.30;;
35074;SDS011;21260;34.984;32.490;2023-03-14T04:44:19;5.72;;;2.40;;
35074;SDS011;21260;34.984;32.490;2023-03-14T04:46:45;3.95;;;2.00;;
35074;SDS011;21260;34.984;32.490;2023-03-14T04:49:12;4.75;;;2.20;;
35074;SDS011;21260;34.984;32.490;2023-03-14T04:51:38;5.15;;;2.10;;
35074;SDS011;21260;34.984;32.490;2023-03-14T04:54:04;5.32;;;2.20;;
35074;SDS011;21260;34.984;32.490;2023-03-14T04:56:30;3.47;;;2.00;;
35074;SDS011;21260;34.984;32.490;2023-03-14T04:58:57;4.63;;;2.37;;
35074;SDS011;21260;34.984;32.490;2023-03-14T05:01:23;4.90;;;2.20;;
35074;SDS011;21260;34.984;32.490;2023-03-14T05:03:51;4.82;;;2.30;;
35074;SDS011;21260;34.984;32.490;2023-03-14T05:06:18;5.30;;;2.13;;
35074;SDS011;21260;34.984;32.490;2023-03-14T05:08:44;6.82;;;2.28;;
35074;SDS011;21260;34.984;32.490;2023-03-14T05:11:10;4.23;;;2.20;;
35074;SDS011;21260;34.984;32.490;2023-03-14T05:13:37;4.35;;;2.22;;
35074;SDS011;21260;34.984;32.490;2023-03-14T05:16:11;4.22;;;2.40;;
35074;SDS011;21260;34.984;32.490;2023-03-14T05:18:39;4.95;;;2.20;;
35074;SDS011;21260;34.984;32.490;2023-03-14T05:21:05;4.60;;;2.30;;
35074;SDS011;21260;34.984;32.490;2023-03-14T05:23:31;4.22;;;2.40;;
35074;SDS011;21260;34.984;32.490;2023-03-14T05:25:58;5.07;;;2.40;;
35074;SDS011;21260;34.984;32.490;2023-03-14T05:28:24;3.28;;;2.13;;
35074;SDS011;21260;34.984;32.490;2023-03-14T05:30:50;3.50;;;2.00;;
35074;SDS011;21260;34.984;32.490;2023-03-14T05:33:16;8.20;;;2.27;;
35074;SDS011;21260;34.984;32.490;2023-03-14T05:35:43;4.45;;;2.22;;
35074;SDS011;21260;34.984;32.490;2023-03-14T05:38:09;5.13;;;2.50;;
35074;SDS011;21260;34.984;32.490;2023-03-14T05:40:35;4.93;;;2.40;;
35074;SDS011;21260;34.984;32.490;2023-03-14T05:43:02;5.07;;;2.55;;
35074;SDS011;21260;34.984;32.490;2023-03-14T05:45:28;5.00;;;2.75;;
35074;SDS011;21260;34.984;32.490;2023-03-14T05:47:54;5.28;;;2.88;;
35074;SDS011;21260;34.984;32.490;2023-03-14T05:50:20;6.07;;;2.80;;
35074;SDS011;21260;34.984;32.490;2023-03-14T05:52:47;6.33;;;3.00;;
35074;SDS011;21260;34.984;32.490;2023-03-14T05:55:13;5.78;;;2.83;;
35074;SDS011;21260;34.984;32.490;2023-03-14T05:57:39;5.95;;;2.75;;
35074;SDS011;21260;34.984;32.490;2023-03-14T06:00:06;4.35;;;2.65;;
35074;SDS011;21260;34.984;32.490;2023-03-14T06:02:33;5.53;;;2.83;;
35074;SDS011;21260;34.984;32.490;2023-03-14T06:04:59;5.28;;;2.67;;
35074;SDS011;21260;34.984;32.490;2023-03-14T06:07:25;5.53;;;2.88;;
35074;SDS011;21260;34.984;32.490;2023-03-14T06:09:52;4.55;;;2.67;;
35074;SDS011;21260;34.984;32.490;2023-03-14T06:12:18;6.47;;;2.90;;
35074;SDS011;21260;34.984;32.490;2023-03-14T06:14:45;5.18;;;2.97;;
35074;SDS011;21260;34.984;32.490;2023-03-14T06:17:11;5.78;;;3.00;;
35074;SDS011;21260;34.984;32.490;2023-03-14T06:19:37;5.82;;;2.90;;
35074;SDS011;21260;34.984;32.490;2023-03-14T06:22:03;5.97;;;3.13;;
35074;SDS011;21260;34.984;32.490;2023-03-14T06:24:29;6.47;;;3.38;;
35074;SDS011;21260;34.984;32.490;2023-03-14T06:26:56;5.88;;;3.25;;
35074;SDS011;21260;34.984;32.490;2023-03-14T06:29:22;5.23;;;2.87;;
35074;SDS011;21260;34.984;32.490;2023-03-14T06:31:49;6.47;;;3.20;;
35074;SDS011;21260;34.984;32.490;2023-03-14T06:34:15;5.72;;;3.53;;
35074;SDS011;21260;34.984;32.490;2023-03-14T06:36:42;5.45;;;3.00;;
35074;SDS011;21260;34.984;32.490;2023-03-14T06:39:08;8.95;;;3.20;;
35074;SDS011;21260;34.984;32.490;2023-03-14T06:41:35;6.68;;;3.33;;
35074;SDS011;21260;34.984;32.490;2023-03-14T06:44:01;8.75;;;3.40;;
35074;SDS011;21260;34.984;32.490;2023-03-14T06:46:27;5.32;;;3.35;;
35074;SDS011;21260;34.984;32.490;2023-03-14T06:48:54;5.88;;;3.20;;
35074;SDS011;21260;34.984;32.490;2023-03-14T06:51:20;6.07;;;3.50;;
35074;SDS011;21260;34.984;32.490;2023-03-14T06:53:46;7.68;;;3.55;;
35074;SDS011;21260;34.984;32.490;2023-03-14T06:56:13;6.82;;;3.50;;
35074;SDS011;21260;34.984;32.490;2023-03-14T06:58:39;6.65;;;3.60;;
35074;SDS011;21260;34.984;32.490;2023-03-14T07:01:05;7.05;;;3.60;;
35074;SDS011;21260;34.984;32.490;2023-03-14T07:03:47;6.43;;;3.60;;
35074;SDS011;21260;34.984;32.490;2023-03-14T07:06:14;5.85;;;3.35;;
35074;SDS011;21260;34.984;32.490;2023-03-14T07:08:40;6.32;;;3.28;;
35074;SDS011;21260;34.984;32.490;2023-03-14T07:11:07;6.35;;;3.30;;
35074;SDS011;21260;34.984;32.490;2023-03-14T07:13:36;4.72;;;3.40;;
35074;SDS011;21260;34.984;32.490;2023-03-14T07:16:03;6.68;;;3.40;;
35074;SDS011;21260;34.984;32.490;2023-03-14T07:18:31;6.30;;;3.33;;
35074;SDS011;21260;34.984;32.490;2023-03-14T07:20:58;4.90;;;3.10;;
35074;SDS011;21260;34.984;32.490;2023-03-14T07:23:24;7.28;;;3.13;;
35074;SDS011;21260;34.984;32.490;2023-03-14T07:25:50;6.53;;;3.17;;
35074;SDS011;21260;34.984;32.490;2023-03-14T07:28:18;7.05;;;3.22;;
35074;SDS011;21260;34.984;32.490;2023-03-14T07:30:48;6.63;;;3.40;;
35074;SDS011;21260;34.984;32.490;2023-03-14T07:33:15;5.43;;;3.20;;
35074;SDS011;21260;34.984;32.490;2023-03-14T07:35:42;6.18;;;3.13;;
35074;SDS011;21260;34.984;32.490;2023-03-14T07:38:08;7.03;;;3.30;;
35074;SDS011;21260;34.984;32.490;2023-03-14T07:40:34;6.65;;;3.30;;
35074;SDS011;21260;34.984;32.490;2023-03-14T07:43:00;5.95;;;2.80;;
35074;SDS011;21260;34.984;32.490;2023-03-14T07:45:27;7.80;;;3.30;;
35074;SDS011;21260;34.984;32.490;2023-03-14T07:47:56;7.45;;;3.13;;
35074;SDS011;21260;34.984;32.490;2023-03-14T07:50:25;6.93;;;3.33;;
35074;SDS011;21260;34.984;32.490;2023-03-14T07:52:53;5.25;;;3.03;;
35074;SDS011;21260;34.984;32.490;2023-03-14T07:55:20;10.48;;;3.95;;
35074;SDS011;21260;34.984;32.490;2023-03-14T07:57:46;5.97;;;3.22;;
35074;SDS011;21260;34.984;32.490;2023-03-14T08:00:13;6.50;;;3.35;;
35074;SDS011;21260;34.984;32.490;2023-03-14T08:02:41;4.63;;;2.95;;
35074;SDS011;21260;34.984;32.490;2023-03-14T08:05:07;6.90;;;3.33;;
35074;SDS011;21260;34.984;32.490;2023-03-14T08:07:34;6.32;;;3.20;;
35074;SDS011;21260;34.984;32.490;2023-03-14T08:10:00;6.15;;;3.40;;
35074;SDS011;21260;34.984;32.490;2023-03-14T08:12:27;5.18;;;3.17;;
35074;SDS011;21260;34.984;32.490;2023-03-14T08:14:53;6.95;;;3.30;;
35074;SDS011;21260;34.984;32.490;2023-03-14T08:17:19;6.35;;;3.50;;
35074;SDS011;21260;34.984;32.490;2023-03-14T08:19:45;6.18;;;3.10;;
35074;SDS011;21260;34.984;32.490;2023-03-14T08:22:12;7.68;;;3.50;;
35074;SDS011;21260;34.984;32.490;2023-03-14T08:24:41;6.50;;;3.40;;
35074;SDS011;21260;34.984;32.490;2023-03-14T08:27:07;7.32;;;3.58;;
35074;SDS011;21260;34.984;32.490;2023-03-14T08:29:33;7.18;;;3.28;;
35074;SDS011;21260;34.984;32.490;2023-03-14T08:31:59;7.57;;;3.42;;
35074;SDS011;21260;34.984;32.490;2023-03-14T08:34:27;12.88;;;3.70;;
35074;SDS011;21260;34.984;32.490;2023-03-14T08:36:53;7.72;;;3.30;;
35074;SDS011;21260;34.984;32.490;2023-03-14T08:39:21;7.35;;;3.50;;
35074;SDS011;21260;34.984;32.490;2023-03-14T08:41:49;8.38;;;3.67;;
35074;SDS011;21260;34.984;32.490;2023-03-14T08:44:15;6.40;;;3.27;;
35074;SDS011;21260;34.984;32.490;2023-03-14T08:46:41;7.25;;;3.20;;
35074;SDS011;21260;34.984;32.490;2023-03-14T08:49:08;9.00;;;3.58;;
35074;SDS011;21260;34.984;32.490;2023-03-14T08:51:34;7.77;;;3.23;;
35074;SDS011;21260;34.984;32.490;2023-03-14T08:54:01;6.13;;;2.72;;
35074;SDS011;21260;34.984;32.490;2023-03-14T08:56:28;6.53;;;2.90;;
35074;SDS011;21260;34.984;32.490;2023-03-14T08:58:56;6.60;;;3.10;;
35074;SDS011;21260;34.984;32.490;2023-03-14T09:01:22;6.95;;;3.22;;
35074;SDS011;21260;34.984;32.490;2023-03-14T09:03:50;5.50;;;2.73;;
35074;SDS011;21260;34.984;32.490;2023-03-14T09:06:16;7.45;;;3.15;;
35074;SDS011;21260;34.984;32.490;2023-03-14T09:08:43;5.97;;;2.75;;
35074;SDS011;21260;34.984;32.490;2023-03-14T09:11:10;5.90;;;2.97;;
35074;SDS011;21260;34.984;32.490;2023-03-14T09:13:37;5.90;;;2.88;;
35074;SDS011;21260;34.984;32.490;2023-03-14T09:16:04;7.07;;;2.92;;
35074;SDS011;21260;34.984;32.490;2023-03-14T09:18:30;4.95;;;2.75;;
35074;SDS011;21260;34.984;32.490;2023-03-14T09:20:57;4.30;;;2.50;;
35074;SDS011;21260;34.984;32.490;2023-03-14T09:23:23;4.30;;;2.63;;
35074;SDS011;21260;34.984;32.490;2023-03-14T09:25:56;6.90;;;2.50;;
35074;SDS011;21260;34.984;32.490;2023-03-14T09:28:24;5.67;;;2.70;;
35074;SDS011;21260;34.984;32.490;2023-03-14T09:30:51;5.85;;;3.00;;
35074;SDS011;21260;34.984;32.490;2023-03-14T09:33:18;6.22;;;3.00;;
35074;SDS011;21260;34.984;32.490;2023-03-14T09:35:45;5.35;;;2.60;;
35074;SDS011;21260;34.984;32.490;2023-03-14T09:38:12;5.95;;;3.20;;
35074;SDS011;21260;34.984;32.490;2023-03-14T09:40:39;9.53;;;3.00;;
35074;SDS011;21260;34.984;32.490;2023-03-14T09:43:05;6.43;;;3.23;;
35074;SDS011;21260;34.984;32.490;2023-03-14T09:45:39;5.03;;;2.93;;
35074;SDS011;21260;34.984;32.490;2023-03-14T09:48:12;6.05;;;2.95;;
35074;SDS011;21260;34.984;32.490;2023-03-14T09:50:51;5.85;;;3.30;;
35074;SDS011;21260;34.984;32.490;2023-03-14T09:53:31;7.55;;;3.63;;
35074;SDS011;21260;34.984;32.490;2023-03-14T09:56:13;7.03;;;3.83;;
35074;SDS011;21260;34.984;32.490;2023-03-14T09:58:59;9.70;;;4.20;;
35074;SDS011;21260;34.984;32.490;2023-03-14T10:01:32;6.60;;;3.67;;
35074;SDS011;21260;34.984;32.490;2023-03-14T10:04:04;6.35;;;3.33;;
35074;SDS011;21260;34.984;32.490;2023-03-14T10:06:41;15.23;;;5.82;;
35074;SDS011;21260;34.984;32.490;2023-03-14T10:09:17;27.25;;;6.88;;
35074;SDS011;21260;34.984;32.490;2023-03-14T10:11:54;13.60;;;5.30;;
35074;SDS011;21260;34.984;32.490;2023-03-14T10:14:29;11.55;;;4.85;;
35074;SDS011;21260;34.984;32.490;2023-03-14T10:17:09;5.13;;;3.50;;
35074;SDS011;21260;34.984;32.490;2023-03-14T11:09:56;5.67;;;4.17;;
35074;SDS011;21260;34.984;32.490;2023-03-14T11:12:55;5.80;;;4.28;;
35074;SDS011;21260;34.984;32.490;2023-03-14T11:21:55;3.97;;;3.50;;
35074;SDS011;21260;34.984;32.490;2023-03-14T11:24:51;4.45;;;3.40;;
35074;SDS011;21260;34.984;32.490;2023-03-14T11:34:22;7.67;;;5.10;;
35074;SDS011;21260;34.984;32.490;2023-03-14T11:40:05;5.30;;;4.30;;
35074;SDS011;21260;34.984;32.490;2023-03-14T11:46:38;8.27;;;5.03;;
35074;SDS011;21260;34.984;32.490;2023-03-14T11:51:55;6.68;;;4.13;;
35074;SDS011;21260;34.984;32.490;2023-03-14T11:55:05;6.05;;;4.13;;
35074;SDS011;21260;34.984;32.490;2023-03-14T11:57:37;6.57;;;4.50;;
35074;SDS011;21260;34.984;32.490;2023-03-14T12:00:19;5.93;;;3.92;;
35074;SDS011;21260;34.984;32.490;2023-03-14T12:02:51;5.95;;;4.15;;
35074;SDS011;21260;34.984;32.490;2023-03-14T12:05:46;6.15;;;3.88;;
35074;SDS011;21260;34.984;32.490;2023-03-14T12:15:05;4.30;;;3.10;;
35074;SDS011;21260;34.984;32.490;2023-03-14T12:17:45;5.65;;;3.85;;
35074;SDS011;21260;34.984;32.490;2023-03-14T12:20:19;4.18;;;3.20;;
35074;SDS011;21260;34.984;32.490;2023-03-14T12:25:27;4.72;;;3.10;;
35074;SDS011;21260;34.984;32.490;2023-03-14T12:38:23;5.72;;;2.88;;
35074;SDS011;21260;34.984;32.490;2023-03-14T12:43:52;3.87;;;2.60;;
35074;SDS011;21260;34.984;32.490;2023-03-14T12:46:22;4.47;;;2.85;;
35074;SDS011;21260;34.984;32.490;2023-03-14T12:49:03;3.47;;;2.60;;
35074;SDS011;21260;34.984;32.490;2023-03-14T12:51:41;3.45;;;2.50;;
35074;SDS011;21260;34.984;32.490;2023-03-14T12:57:23;7.43;;;4.70;;
35074;SDS011;21260;34.984;32.490;2023-03-14T13:00:13;8.23;;;4.30;;
35074;SDS011;21260;34.984;32.490;2023-03-14T13:02:48;7.10;;;3.50;;
35074;SDS011;21260;34.984;32.490;2023-03-14T13:05:17;5.27;;;3.20;;
35074;SDS011;21260;34.984;32.490;2023-03-14T13:10:18;5.03;;;3.10;;
35074;SDS011;21260;34.984;32.490;2023-03-14T13:12:55;7.40;;;3.88;;
35074;SDS011;21260;34.984;32.490;2023-03-14T13:15:54;6.30;;;3.95;;
35074;SDS011;21260;34.984;32.490;2023-03-14T13:21:21;5.22;;;3.67;;
35074;SDS011;21260;34.984;32.490;2023-03-14T13:23:59;5.35;;;3.80;;
35074;SDS011;21260;34.984;32.490;2023-03-14T13:26:53;6.15;;;4.07;;
35074;SDS011;21260;34.984;32.490;2023-03-14T13:29:28;5.47;;;4.28;;
35074;SDS011;21260;34.984;32.490;2023-03-14T13:32:00;4.63;;;3.80;;
35074;SDS011;21260;34.984;32.490;2023-03-14T13:34:42;6.10;;;4.28;;
35074;SDS011;21260;34.984;32.490;2023-03-14T13:37:22;7.47;;;4.13;;
35074;SDS011;21260;34.984;32.490;2023-03-14T13:39:51;6.23;;;4.40;;
35074;SDS011;21260;34.984;32.490;2023-03-14T13:42:28;6.10;;;3.85;;
35074;SDS011;21260;34.984;32.490;2023-03-14T13:44:56;6.55;;;4.18;;
35074;SDS011;21260;34.984;32.490;2023-03-14T13:47:23;5.72;;;3.63;;
35074;SDS011;21260;34.984;32.490;2023-03-14T13:49:51;5.03;;;3.55;;
35074;SDS011;21260;34.984;32.490;2023-03-14T13:52:31;5.35;;;3.67;;
35074;SDS011;21260;34.984;32.490;2023-03-14T13:55:03;6.15;;;3.78;;
35074;SDS011;21260;34.984;32.490;2023-03-14T13:57:46;4.80;;;3.45;;
35074;SDS011;21260;34.984;32.490;2023-03-14T14:00:20;6.80;;;3.63;;
35074;SDS011;21260;34.984;32.490;2023-03-14T14:02:56;6.80;;;3.38;;
35074;SDS011;21260;34.984;32.490;2023-03-14T14:05:26;6.30;;;3.42;;
35074;SDS011;21260;34.984;32.490;2023-03-14T14:07:54;7.90;;;3.60;;
35074;SDS011;21260;34.984;32.490;2023-03-14T14:10:25;10.18;;;3.50;;
35074;SDS011;21260;34.984;32.490;2023-03-14T14:15:32;4.80;;;3.08;;
35074;SDS011;21260;34.984;32.490;2023-03-14T14:18:07;7.47;;;3.58;;
35074;SDS011;21260;34.984;32.490;2023-03-14T14:20:43;7.95;;;3.40;;
35074;SDS011;21260;34.984;32.490;2023-03-14T14:25:45;5.55;;;3.05;;
35074;SDS011;21260;34.984;32.490;2023-03-14T14:36:39;7.63;;;3.25;;
35074;SDS011;21260;34.984;32.490;2023-03-14T14:41:43;6.97;;;3.20;;
35074;SDS011;21260;34.984;32.490;2023-03-14T14:44:16;6.88;;;2.90;;
35074;SDS011;21260;34.984;32.490;2023-03-14T14:46:53;6.90;;;3.10;;
35074;SDS011;21260;34.984;32.490;2023-03-14T14:49:28;6.85;;;3.05;;
35074;SDS011;21260;34.984;32.490;2023-03-14T14:52:02;5.40;;;2.53;;
35074;SDS011;21260;34.984;32.490;2023-03-14T14:54:46;5.13;;;2.60;;
35074;SDS011;21260;34.984;32.490;2023-03-14T14:57:25;4.05;;;2.40;;
35074;SDS011;21260;34.984;32.490;2023-03-14T14:59:56;5.63;;;2.50;;
35074;SDS011;21260;34.984;32.490;2023-03-14T15:02:47;3.87;;;2.33;;
35074;SDS011;21260;34.984;32.490;2023-03-14T15:05:21;5.43;;;2.57;;
35074;SDS011;21260;34.984;32.490;2023-03-14T15:07:51;5.82;;;2.97;;
35074;SDS011;21260;34.984;32.490;2023-03-14T15:10:19;5.63;;;2.70;;
35074;SDS011;21260;34.984;32.490;2023-03-14T15:12:50;5.17;;;2.70;;
35074;SDS011;21260;34.984;32.490;2023-03-14T15:15:16;4.43;;;2.60;;
35074;SDS011;21260;34.984;32.490;2023-03-14T15:17:44;4.10;;;2.60;;
35074;SDS011;21260;34.984;32.490;2023-03-14T15:20:12;4.60;;;2.53;;
35074;SDS011;21260;34.984;32.490;2023-03-14T15:22:44;6.28;;;2.90;;
35074;SDS011;21260;34.984;32.490;2023-03-14T15:25:12;6.13;;;2.53;;
35074;SDS011;21260;34.984;32.490;2023-03-14T15:27:38;5.53;;;2.50;;
35074;SDS011;21260;34.984;32.490;2023-03-14T15:30:11;5.00;;;2.25;;
35074;SDS011;21260;34.984;32.490;2023-03-14T15:32:39;4.40;;;2.50;;
35074;SDS011;21260;34.984;32.490;2023-03-14T15:35:06;4.43;;;2.40;;
35074;SDS011;21260;34.984;32.490;2023-03-14T15:37:33;5.07;;;2.50;;
35074;SDS011;21260;34.984;32.490;2023-03-14T15:40:00;3.65;;;2.30;;
35074;SDS011;21260;34.984;32.490;2023-03-14T15:42:35;4.93;;;2.33;;
35074;SDS011;21260;34.984;32.490;2023-03-14T15:45:01;4.18;;;3.17;;
35074;SDS011;21260;34.984;32.490;2023-03-14T15:47:27;4.50;;;3.42;;
35074;SDS011;21260;34.984;32.490;2023-03-14T15:49:53;4.87;;;3.17;;
35074;SDS011;21260;34.984;32.490;2023-03-14T15:52:20;4.43;;;3.20;;
35074;SDS011;21260;34.984;32.490;2023-03-14T15:54:46;4.40;;;3.60;;
35074;SDS011;21260;34.984;32.490;2023-03-14T15:57:12;4.40;;;3.30;;
35074;SDS011;21260;34.984;32.490;2023-03-14T15:59:39;4.47;;;3.10;;
35074;SDS011;21260;34.984;32.490;2023-03-14T16:02:05;3.70;;;2.30;;
35074;SDS011;21260;34.984;32.490;2023-03-14T16:04:32;4.97;;;2.20;;
35074;SDS011;21260;34.984;32.490;2023-03-14T16:06:58;2.10;;;1.70;;
35074;SDS011;21260;34.984;32.490;2023-03-14T16:09:24;3.23;;;1.90;;
35074;SDS011;21260;34.984;32.490;2023-03-14T16:11:52;3.38;;;1.60;;
35074;SDS011;21260;34.984;32.490;2023-03-14T16:14:19;5.25;;;1.70;;
35074;SDS011;21260;34.984;32.490;2023-03-14T16:16:46;2.40;;;1.40;;
35074;SDS011;21260;34.984;32.490;2023-03-14T16:19:12;3.42;;;1.98;;
35074;SDS011;21260;34.984;32.490;2023-03-14T16:21:39;4.10;;;1.92;;
35074;SDS011;21260;34.984;32.490;2023-03-14T16:24:05;4.53;;;2.40;;
35074;SDS011;21260;34.984;32.490;2023-03-14T16:26:31;4.20;;;1.92;;
35074;SDS011;21260;34.984;32.490;2023-03-14T16:29:00;2.17;;;1.70;;
35074;SDS011;21260;34.984;32.490;2023-03-14T16:31:27;3.10;;;1.70;;
35074;SDS011;21260;34.984;32.490;2023-03-14T16:33:53;4.63;;;1.90;;
35074;SDS011;21260;34.984;32.490;2023-03-14T16:36:19;2.97;;;1.70;;
35074;SDS011;21260;34.984;32.490;2023-03-14T16:38:45;2.75;;;1.67;;
35074;SDS011;21260;34.984;32.490;2023-03-14T16:41:17;2.28;;;1.77;;
35074;SDS011;21260;34.984;32.490;2023-03-14T16:43:45;3.22;;;1.63;;
35074;SDS011;21260;34.984;32.490;2023-03-14T16:46:16;2.22;;;1.70;;
35074;SDS011;21260;34.984;32.490;2023-03-14T16:48:43;3.05;;;1.60;;
35074;SDS011;21260;34.984;32.490;2023-03-14T16:51:10;2.85;;;1.60;;
35074;SDS011;21260;34.984;32.490;2023-03-14T16:53:38;2.75;;;1.80;;
35074;SDS011;21260;34.984;32.490;2023-03-14T16:56:04;3.97;;;1.80;;
35074;SDS011;21260;34.984;32.490;2023-03-14T16:58:31;3.85;;;1.65;;
35074;SDS011;21260;34.984;32.490;2023-03-14T17:00:58;2.50;;;1.60;;
35074;SDS011;21260;34.984;32.490;2023-03-14T17:03:34;2.00;;;1.50;;